Time;durP1;ratioP1;P1;durP2;ratioP2;P2;SDS_P1;SDS_P2;PMS_P1;PMS_P2;Temp;Humidity;BMP_temperature;BMP_pressure;BME280_temperature;BME280_humidity;BME280_pressure;Samples;Min_cycle;Max_cycle;Signal;HPM_P1;HPM_P2
2021/03/28 00:01:45;;;;;;;;;;;;;;;;;;5006450;28;19932;-66
2021/03/28 00:04:12;;;;;;;;;;;;;;;;;;5014692;28;20083;-66
2021/03/28 00:06:38;;;;;;;;;;;;;;;;;;5007753;28;19932;-66
2021/03/28 00:09:05;;;;;;;;;;;;;;;;;;5018924;28;20032;-66
2021/03/28 00:11:31;;;;;;;;;;;;;;;;;;5016726;28;19968;-66
2021/03/28 00:13:58;;;;;;;;;;;;;;;;;;5018996;28;19925;-66
2021/03/28 00:16:24;;;;;;;;;;;;;;;;;;5015380;28;20020;-65
2021/03/28 00:18:51;;;;;;;;;;;;;;;;;;5012878;28;20000;-67
2021/03/28 00:21:17;;;;;;;;;;;;;;;;;;5017524;28;19925;-66
2021/03/28 00:23:44;;;;;;;;;;;;;;;;;;5018029;28;19926;-65
2021/03/28 00:26:10;;;;;;;;;;;;;;;;;;5008684;28;20377;-66
2021/03/28 00:28:37;;;;;;;;;;;;;;;;;;5013027;28;20015;-68
2021/03/28 00:31:03;;;;;;;;;;;;;;;;;;5004042;28;19960;-66
2021/03/28 00:33:30;;;;;;;;;;;;;;;;;;5009684;28;19926;-67
2021/03/28 00:35:56;;;;;;;;;;;;;;;;;;5017162;28;19931;-66
2021/03/28 00:38:23;;;;;;;;;;;;;;;;;;5017450;28;19979;-66
2021/03/28 00:40:49;;;;;;;;;;;;;;;;;;5012313;28;19937;-64
2021/03/28 00:43:16;;;;;;;;;;;;;;;;;;5016723;28;19992;-66
2021/03/28 00:45:42;;;;;;;;;;;;;;;;;;5011952;28;19940;-66
2021/03/28 00:48:09;;;;;;;;;;;;;;;;;;5004620;28;19992;-66
2021/03/28 00:50:35;;;;;;;;;;;;;;;;;;5003391;28;20021;-65
2021/03/28 00:53:02;;;;;;;;;;;;;;;;;;5002596;28;19976;-66
2021/03/28 00:55:28;;;;;;;;;;;;;;;;;;5011353;28;19933;-69
2021/03/28 00:57:55;;;;;;;;;;;;;;;;;;5013741;28;19926;-66
2021/03/28 01:00:21;;;;;;;;;;;;;;;;;;5019979;28;19938;-66
2021/03/28 01:02:48;;;;;;;;;;;;;;;;;;5011098;28;19926;-66
2021/03/28 01:05:14;;;;;;;;;;;;;;;;;;5016591;28;20429;-66
2021/03/28 01:07:41;;;;;;;;;;;;;;;;;;5017196;28;19931;-65
2021/03/28 01:10:08;;;;;;;;;;;;;;;;;;5004548;28;19926;-66
2021/03/28 01:12:34;;;;;;;;;;;;;;;;;;5003845;28;20299;-64
2021/03/28 01:15:01;;;;;;;;;;;;;;;;;;5012966;28;20004;-66
2021/03/28 01:17:27;;;;;;;;;;;;;;;;;;5016367;28;20137;-64
2021/03/28 01:19:54;;;;;;;;;;;;;;;;;;5017308;28;19988;-64
2021/03/28 01:22:20;;;;;;;;;;;;;;;;;;5014662;28;20334;-65
2021/03/28 01:24:47;;;;;;;;;;;;;;;;;;5008748;28;19929;-66
2021/03/28 01:27:13;;;;;;;;;;;;;;;;;;5014899;28;20117;-64
2021/03/28 01:29:40;;;;;;;;;;;;;;;;;;5004034;28;20814;-67
2021/03/28 01:32:06;;;;;;;;;;;;;;;;;;5016314;28;19932;-65
2021/03/28 01:34:33;;;;;;;;;;;;;;;;;;5014957;28;19926;-64
2021/03/28 01:36:59;;;;;;;;;;;;;;;;;;5012049;28;19929;-65
2021/03/28 01:39:26;;;;;;;;;;;;;;;;;;5019805;28;20136;-67
2021/03/28 01:41:52;;;;;;;;;;;;;;;;;;5013316;28;19925;-64
2021/03/28 01:44:19;;;;;;;;;;;;;;;;;;5013361;28;19925;-65
2021/03/28 01:46:45;;;;;;;;;;;;;;;;;;5010323;28;19929;-65
2021/03/28 01:49:12;;;;;;;;;;;;;;;;;;5018311;28;20404;-67
2021/03/28 01:51:38;;;;;;;;;;;;;;;;;;5017127;28;19925;-65
2021/03/28 01:54:05;;;;;;;;;;;;;;;;;;5021288;28;19933;-64
2021/03/28 01:56:31;;;;;;;;;;;;;;;;;;5016766;28;19929;-67
2021/03/28 01:58:58;;;;;;;;;;;;;;;;;;5014544;28;19925;-66
2021/03/28 02:01:24;;;;;;;;;;;;;;;;;;5014040;28;20348;-65
2021/03/28 02:03:51;;;;;;;;;;;;;;;;;;5021047;28;20087;-65
2021/03/28 02:06:17;;;;;;;;;;;;;;;;;;5016922;28;20294;-65
2021/03/28 02:08:44;;;;;;;;;;;;;;;;;;5021997;28;19952;-65
2021/03/28 02:11:10;;;;;;;;;;;;;;;;;;5014937;28;20028;-66
2021/03/28 02:13:37;;;;;;;;;;;;;;;;;;5020645;28;19952;-66
2021/03/28 02:16:03;;;;;;;;;;;;;;;;;;5018611;28;19932;-66
2021/03/28 02:18:30;;;;;;;;;;;;;;;;;;5022290;28;19941;-64
2021/03/28 02:20:56;;;;;;;;;;;;;;;;;;5014360;28;19936;-65
2021/03/28 02:23:23;;;;;;;;;;;;;;;;;;5017909;28;19929;-65
2021/03/28 02:25:49;;;;;;;;;;;;;;;;;;5017955;28;20494;-66
2021/03/28 02:28:16;;;;;;;;;;;;;;;;;;5020716;28;19925;-65
2021/03/28 02:30:43;;;;;;;;;;;;;;;;;;5010461;28;20393;-65
2021/03/28 02:33:09;;;;;;;;;;;;;;;;;;5014370;28;19985;-66
2021/03/28 02:35:36;;;;;;;;;;;;;;;;;;5021632;28;19968;-66
2021/03/28 02:38:02;;;;;;;;;;;;;;;;;;5020930;28;19941;-64
2021/03/28 02:40:29;;;;;;;;;;;;;;;;;;5019533;28;20016;-65
2021/03/28 02:42:55;;;;;;;;;;;;;;;;;;5010481;28;20377;-65
2021/03/28 02:45:22;;;;;;;;;;;;;;;;;;5020468;28;19929;-65
2021/03/28 02:47:48;;;;;;;;;;;;;;;;;;5018863;28;20397;-65
2021/03/28 02:50:15;;;;;;;;;;;;;;;;;;5020392;28;19925;-65
2021/03/28 02:52:41;;;;;;;;;;;;;;;;;;5015786;28;19933;-65
2021/03/28 02:55:08;;;;;;;;;;;;;;;;;;5011406;28;20027;-66
2021/03/28 02:57:34;;;;;;;;;;;;;;;;;;5009084;28;19983;-66
2021/03/28 03:00:04;;;;;;;;;;;;;;;;;;5021117;28;19929;-64
2021/03/28 03:02:30;;;;;;;;;;;;;;;;;;5014428;28;19972;-66
2021/03/28 03:04:57;;;;;;;;;;;;;;;;;;5012976;28;20279;-66
2021/03/28 03:07:23;;;;;;;;;;;;;;;;;;5013462;28;19933;-65
2021/03/28 03:09:50;;;;;;;;;;;;;;;;;;5022010;28;20016;-65
2021/03/28 03:12:16;;;;;;;;;;;;;;;;;;5017002;28;20331;-65
2021/03/28 03:14:43;;;;;;;;;;;;;;;;;;5015356;28;19936;-65
2021/03/28 03:17:09;;;;;;;;;;;;;;;;;;5017108;28;20313;-65
2021/03/28 03:19:36;;;;;;;;;;;;;;;;;;5015409;28;19932;-64
2021/03/28 03:22:02;;;;;;;;;;;;;;;;;;5025399;28;20400;-66
2021/03/28 03:24:29;;;;;;;;;;;;;;;;;;5017056;28;19929;-66
2021/03/28 03:26:55;;;;;;;;;;;;;;;;;;5024058;28;19936;-65
2021/03/28 03:29:22;;;;;;;;;;;;;;;;;;5010196;28;20025;-65
2021/03/28 03:31:48;;;;;;;;;;;;;;;;;;5015235;28;20412;-65
2021/03/28 03:34:15;;;;;;;;;;;;;;;;;;5011886;28;19925;-65
2021/03/28 03:36:41;;;;;;;;;;;;;;;;;;5020411;28;19936;-66
2021/03/28 03:39:08;;;;;;;;;;;;;;;;;;5014455;28;19925;-67
2021/03/28 03:41:34;;;;;;;;;;;;;;;;;;5013779;28;20024;-64
2021/03/28 03:44:01;;;;;;;;;;;;;;;;;;5014577;28;19929;-66
2021/03/28 03:46:29;;;;;;;;;;;;;;;;;;5013535;28;20301;-64
2021/03/28 03:48:55;;;;;;;;;;;;;;;;;;5010656;28;19968;-65
2021/03/28 03:51:22;;;;;;;;;;;;;;;;;;5015399;28;19933;-65
2021/03/28 03:53:48;;;;;;;;;;;;;;;;;;5017777;28;20012;-65
2021/03/28 03:56:15;;;;;;;;;;;;;;;;;;5015405;28;19931;-64
2021/03/28 03:58:41;;;;;;;;;;;;;;;;;;5019124;28;20301;-64
2021/03/28 04:01:07;;;;;;;;;;;;;;;;;;5014040;28;19925;-64
2021/03/28 04:03:34;;;;;;;;;;;;;;;;;;5022558;28;19940;-64
2021/03/28 04:06:00;;;;;;;;;;;;;;;;;;5056078;22;19931;-68
2021/03/28 04:08:27;;;;;;;;;;;;;;;;;;5041483;28;20246;-66
2021/03/28 04:10:54;;;;;;;;;;;;;;;;;;5051616;28;19971;-66
2021/03/28 04:13:20;;;;;;;;;;;;;;;;;;5048800;28;20335;-66
2021/03/28 04:15:46;;;;;;;;;;;;;;;;;;5049364;28;19925;-66
2021/03/28 04:18:13;;;;;;;;;;;;;;;;;;5058887;28;19929;-66
2021/03/28 04:20:40;;;;;;;;;;;;;;;;;;5047676;28;19933;-66
2021/03/28 04:23:06;;;;;;;;;;;;;;;;;;5051405;28;19932;-66
2021/03/28 04:25:33;;;;;;;;;;;;;;;;;;5050035;28;19947;-66
2021/03/28 04:27:59;;;;;;;;;;;;;;;;;;5053040;28;19985;-66
2021/03/28 04:30:26;;;;;;;;;;;;;;;;;;5055506;28;19932;-66
2021/03/28 04:32:52;;;;;;;;;;;;;;;;;;5046684;28;19932;-66
2021/03/28 04:35:19;;;;;;;;;;;;;;;;;;5058775;28;19931;-66
2021/03/28 04:37:45;;;;;;;;;;;;;;;;;;5056943;28;19928;-67
2021/03/28 04:40:12;;;;;;;;;;;;;;;;;;5048941;28;20381;-67
2021/03/28 04:42:38;;;;;;;;;;;;;;;;;;5050828;28;19925;-67
2021/03/28 04:45:04;;;;;;;;;;;;;;;;;;5047238;28;20297;-66
2021/03/28 04:47:31;;;;;;;;;;;;;;;;;;5058773;28;20035;-67
2021/03/28 04:49:58;;;;;;;;;;;;;;;;;;5048132;28;19968;-68
2021/03/28 04:52:24;;;;;;;;;;;;;;;;;;5049137;28;20000;-67
2021/03/28 04:54:53;;;;;;;;;;;;;;;;;;5050868;28;20077;-66
2021/03/28 04:57:19;;;;;;;;;;;;;;;;;;5038468;28;20019;-66
2021/03/28 04:59:46;;;;;;;;;;;;;;;;;;5051836;28;20295;-66
2021/03/28 05:02:12;;;;;;;;;;;;;;;;;;5045840;28;19925;-66
2021/03/28 05:04:41;;;;;;;;;;;;;;;;;;5043166;28;19947;-66
2021/03/28 05:07:08;;;;;;;;;;;;;;;;;;5047143;28;20261;-67
2021/03/28 05:09:36;;;;;;;;;;;;;;;;;;5051822;28;19929;-66
2021/03/28 05:12:03;;;;;;;;;;;;;;;;;;5052840;28;19924;-66
2021/03/28 05:14:29;;;;;;;;;;;;;;;;;;5046316;28;19924;-66
2021/03/28 05:16:56;;;;;;;;;;;;;;;;;;5051174;28;19929;-68
2021/03/28 05:19:22;;;;;;;;;;;;;;;;;;5048077;28;20036;-67
2021/03/28 05:21:49;;;;;;;;;;;;;;;;;;5049263;28;20007;-66
2021/03/28 05:24:18;;;;;;;;;;;;;;;;;;5048507;28;20397;-66
2021/03/28 05:26:45;;;;;;;;;;;;;;;;;;5039866;28;19929;-66
2021/03/28 05:29:11;;;;;;;;;;;;;;;;;;5053511;28;19947;-66
2021/03/28 05:31:38;;;;;;;;;;;;;;;;;;5048288;28;20343;-67
2021/03/28 05:34:04;;;;;;;;;;;;;;;;;;5044933;28;20039;-66
2021/03/28 05:36:31;;;;;;;;;;;;;;;;;;5044011;28;19935;-67
2021/03/28 05:38:57;;;;;;;;;;;;;;;;;;5056898;28;19925;-66
2021/03/28 05:41:24;;;;;;;;;;;;;;;;;;5043622;28;19990;-67
2021/03/28 05:43:50;;;;;;;;;;;;;;;;;;5049495;28;20027;-66
2021/03/28 05:46:17;;;;;;;;;;;;;;;;;;5053956;28;19964;-66
2021/03/28 05:48:43;;;;;;;;;;;;;;;;;;5053627;28;19926;-67
2021/03/28 05:51:10;;;;;;;;;;;;;;;;;;5045627;28;19929;-66
2021/03/28 05:53:36;;;;;;;;;;;;;;;;;;5049044;28;19925;-67
2021/03/28 05:56:03;;;;;;;;;;;;;;;;;;5054846;28;19973;-67
2021/03/28 05:58:29;;;;;;;;;;;;;;;;;;5049198;28;19924;-67
2021/03/28 06:00:56;;;;;;;;;;;;;;;;;;5049312;28;19970;-66
2021/03/28 06:03:22;;;;;;;;;;;;;;;;;;5053371;28;19924;-67
2021/03/28 06:05:49;;;;;;;;;;;;;;;;;;5049605;28;20019;-66
2021/03/28 06:08:15;;;;;;;;;;;;;;;;;;5049839;28;19935;-67
2021/03/28 06:10:42;;;;;;;;;;;;;;;;;;5042693;28;19924;-66
2021/03/28 06:13:08;;;;;;;;;;;;;;;;;;5061561;28;19931;-67
2021/03/28 06:15:35;;;;;;;;;;;;;;;;;;5056339;28;19929;-66
2021/03/28 06:18:01;;;;;;;;;;;;;;;;;;5049426;28;20335;-66
2021/03/28 06:20:28;;;;;;;;;;;;;;;;;;5053219;28;20020;-66
2021/03/28 06:22:54;;;;;;;;;;;;;;;;;;5060428;28;19924;-66
2021/03/28 06:25:21;;;;;;;;;;;;;;;;;;5039940;28;19935;-66
2021/03/28 06:27:47;;;;;;;;;;;;;;;;;;5043702;28;19935;-67
2021/03/28 06:30:14;;;;;;;;;;;;;;;;;;5049302;28;19935;-67
2021/03/28 06:32:40;;;;;;;;;;;;;;;;;;5048626;28;20117;-67
2021/03/28 06:35:07;;;;;;;;;;;;;;;;;;5054893;28;19936;-67
2021/03/28 06:37:33;;;;;;;;;;;;;;;;;;5052392;28;19932;-67
2021/03/28 06:40:00;;;;;;;;;;;;;;;;;;5048912;28;20381;-67
2021/03/28 06:42:26;;;;;;;;;;;;;;;;;;5043776;28;19925;-68
2021/03/28 06:44:53;;;;;;;;;;;;;;;;;;5047458;28;19964;-67
2021/03/28 06:47:19;;;;;;;;;;;;;;;;;;5051362;28;20452;-67
2021/03/28 06:49:46;;;;;;;;;;;;;;;;;;5060270;28;19924;-70
2021/03/28 06:52:12;;;;;;;;;;;;;;;;;;5061851;28;19972;-67
2021/03/28 06:54:39;;;;;;;;;;;;;;;;;;5047248;28;19931;-67
2021/03/28 06:57:05;;;;;;;;;;;;;;;;;;5054236;28;20040;-66
2021/03/28 06:59:32;;;;;;;;;;;;;;;;;;5058357;28;20348;-67
2021/03/28 07:01:59;;;;;;;;;;;;;;;;;;5062500;28;20073;-68
2021/03/28 07:04:25;;;;;;;;;;;;;;;;;;5044904;28;19940;-67
2021/03/28 07:06:51;;;;;;;;;;;;;;;;;;5051291;28;20331;-67
2021/03/28 07:09:18;;;;;;;;;;;;;;;;;;5056369;28;19928;-67
2021/03/28 07:11:44;;;;;;;;;;;;;;;;;;5065193;28;19931;-68
2021/03/28 07:14:11;;;;;;;;;;;;;;;;;;5051469;28;20296;-67
2021/03/28 07:16:37;;;;;;;;;;;;;;;;;;5046198;28;19971;-69
2021/03/28 07:19:04;;;;;;;;;;;;;;;;;;5058442;28;19955;-72
2021/03/28 07:21:30;;;;;;;;;;;;;;;;;;5059314;28;19925;-68
2021/03/28 07:23:57;;;;;;;;;;;;;;;;;;5047967;28;19956;-69
2021/03/28 07:26:23;;;;;;;;;;;;;;;;;;5066602;28;19929;-69
2021/03/28 07:28:50;;;;;;;;;;;;;;;;;;5058369;28;19993;-69
2021/03/28 07:31:16;;;;;;;;;;;;;;;;;;5046160;28;20448;-69
2021/03/28 07:33:43;;;;;;;;;;;;;;;;;;5058603;28;19925;-68
2021/03/28 07:36:09;;;;;;;;;;;;;;;;;;5055652;28;20295;-72
2021/03/28 07:38:36;;;;;;;;;;;;;;;;;;5044880;28;19936;-69
2021/03/28 07:41:02;;;;;;;;;;;;;;;;;;5053388;28;19925;-70
2021/03/28 07:43:29;;;;;;;;;;;;;;;;;;5049478;28;19924;-68
2021/03/28 07:45:55;;;;;;;;;;;;;;;;;;5046693;28;20006;-69
2021/03/28 07:48:22;;;;;;;;;;;;;;;;;;5056074;28;20363;-72
2021/03/28 07:50:48;;;;;;;;;;;;;;;;;;5051556;28;19925;-71
2021/03/28 07:53:15;;;;;;;;;;;;;;;;;;5053985;28;19933;-69
2021/03/28 07:55:41;;;;;;;;;;;;;;;;;;5048598;28;19925;-70
2021/03/28 07:58:08;;;;;;;;;;;;;;;;;;5044533;28;19931;-69
2021/03/28 08:00:34;;;;;;;;;;;;;;;;;;5050801;28;19935;-70
2021/03/28 08:03:01;;;;;;;;;;;;;;;;;;5054872;28;19935;-68
2021/03/28 08:05:27;;;;;;;;;;;;;;;;;;5063570;28;19925;-69
2021/03/28 08:07:54;;;;;;;;;;;;;;;;;;5066199;28;19987;-69
2021/03/28 08:10:20;;;;;;;;;;;;;;;;;;5065039;28;20007;-69
2021/03/28 08:12:47;;;;;;;;;;;;;;;;;;5073927;28;20079;-69
2021/03/28 08:15:13;;;;;;;;;;;;;;;;;;5056856;28;20452;-71
2021/03/28 08:17:40;;;;;;;;;;;;;;;;;;5069827;28;20016;-68
2021/03/28 08:20:06;;;;;;;;;;;;;;;;;;5056130;28;20028;-68
2021/03/28 08:22:33;;;;;;;;;;;;;;;;;;5058252;28;19924;-70
2021/03/28 08:25:00;;;;;;;;;;;;;;;;;;5063596;28;19925;-70
2021/03/28 08:27:26;;;;;;;;;;;;;;;;;;5060240;28;20394;-68
2021/03/28 08:29:53;;;;;;;;;;;;;;;;;;5043430;28;19929;-69
2021/03/28 08:32:19;;;;;;;;;;;;;;;;;;5047549;28;20020;-72
2021/03/28 08:34:46;;;;;;;;;;;;;;;;;;5045086;28;19932;-71
2021/03/28 08:37:12;;;;;;;;;;;;;;;;;;5057718;28;19925;-69
2021/03/28 08:39:39;;;;;;;;;;;;;;;;;;5056115;28;20015;-69
2021/03/28 08:42:05;;;;;;;;;;;;;;;;;;5056633;28;19959;-69
2021/03/28 08:44:32;;;;;;;;;;;;;;;;;;5050818;28;20463;-69
2021/03/28 08:46:58;;;;;;;;;;;;;;;;;;5044674;28;19924;-72
2021/03/28 08:49:25;;;;;;;;;;;;;;;;;;5046971;28;19934;-69
2021/03/28 08:51:51;;;;;;;;;;;;;;;;;;5046164;28;19939;-69
2021/03/28 08:54:18;;;;;;;;;;;;;;;;;;5049544;28;19925;-71
2021/03/28 08:56:44;;;;;;;;;;;;;;;;;;5047566;28;19940;-69
2021/03/28 08:59:11;;;;;;;;;;;;;;;;;;5048163;28;19926;-70
2021/03/28 09:01:37;;;;;;;;;;;;;;;;;;5049058;28;19925;-67
2021/03/28 09:04:04;;;;;;;;;;;;;;;;;;5049863;28;19947;-69
2021/03/28 09:06:30;;;;;;;;;;;;;;;;;;5060119;28;19940;-70
2021/03/28 09:08:57;;;;;;;;;;;;;;;;;;5050976;28;19924;-71
2021/03/28 09:11:23;;;;;;;;;;;;;;;;;;5050062;28;19937;-68
2021/03/28 09:13:50;;;;;;;;;;;;;;;;;;5043560;28;19968;-68
2021/03/28 09:16:16;;;;;;;;;;;;;;;;;;5050914;28;20019;-67
2021/03/28 09:18:43;;;;;;;;;;;;;;;;;;5047574;28;20418;-67
2021/03/28 09:21:09;;;;;;;;;;;;;;;;;;5050117;28;20411;-66
2021/03/28 09:23:36;;;;;;;;;;;;;;;;;;5052052;28;19932;-67
2021/03/28 09:26:02;;;;;;;;;;;;;;;;;;5037337;28;19925;-67
2021/03/28 09:28:29;;;;;;;;;;;;;;;;;;5053002;28;19982;-67
2021/03/28 09:30:55;;;;;;;;;;;;;;;;;;5054164;28;20390;-67
2021/03/28 09:33:22;;;;;;;;;;;;;;;;;;5047773;28;19933;-67
2021/03/28 09:35:48;;;;;;;;;;;;;;;;;;5053400;28;19989;-66
2021/03/28 09:38:15;;;;;;;;;;;;;;;;;;5042347;28;20411;-68
2021/03/28 09:40:41;;;;;;;;;;;;;;;;;;5047166;28;20384;-68
2021/03/28 09:43:08;;;;;;;;;;;;;;;;;;5056724;28;19968;-66
2021/03/28 09:45:34;;;;;;;;;;;;;;;;;;5045694;28;19935;-66
2021/03/28 09:48:01;;;;;;;;;;;;;;;;;;5050463;28;19925;-68
2021/03/28 09:50:27;;;;;;;;;;;;;;;;;;5040963;28;20015;-67
2021/03/28 09:52:54;;;;;;;;;;;;;;;;;;5051285;28;20308;-66
2021/03/28 09:55:20;;;;;;;;;;;;;;;;;;5047028;28;19929;-67
2021/03/28 09:57:47;;;;;;;;;;;;;;;;;;5035539;28;19925;-67
2021/03/28 10:00:14;;;;;;;;;;;;;;;;;;5042842;28;19931;-67
2021/03/28 10:02:41;;;;;;;;;;;;;;;;;;5043926;28;20005;-66
2021/03/28 10:05:08;;;;;;;;;;;;;;;;;;5036317;28;19942;-66
2021/03/28 10:07:34;;;;;;;;;;;;;;;;;;5039693;28;19935;-66
2021/03/28 10:10:01;;;;;;;;;;;;;;;;;;5039285;28;19932;-66
2021/03/28 10:12:27;;;;;;;;;;;;;;;;;;5039096;28;20349;-67
2021/03/28 10:14:54;;;;;;;;;;;;;;;;;;5044242;28;20008;-67
2021/03/28 10:17:23;;;;;;;;;;;;;;;;;;5044474;28;19925;-67
2021/03/28 10:19:49;;;;;;;;;;;;;;;;;;5041339;28;19925;-67
2021/03/28 10:22:16;;;;;;;;;;;;;;;;;;5040758;28;20015;-66
2021/03/28 10:24:42;;;;;;;;;;;;;;;;;;5036181;28;20023;-68
2021/03/28 10:27:09;;;;;;;;;;;;;;;;;;5044620;28;20015;-67
2021/03/28 10:29:35;;;;;;;;;;;;;;;;;;5038335;28;20003;-67
2021/03/28 10:32:02;;;;;;;;;;;;;;;;;;5041116;28;19925;-67
2021/03/28 10:34:28;;;;;;;;;;;;;;;;;;5039056;28;19925;-67
2021/03/28 10:36:55;;;;;;;;;;;;;;;;;;5042037;28;19929;-65
2021/03/28 10:39:21;;;;;;;;;;;;;;;;;;5037184;28;20007;-65
2021/03/28 10:41:48;;;;;;;;;;;;;;;;;;5039891;28;20018;-66
2021/03/28 10:44:14;;;;;;;;;;;;;;;;;;5038467;28;19937;-66
2021/03/28 10:46:41;;;;;;;;;;;;;;;;;;5040960;28;19987;-68
2021/03/28 10:49:07;;;;;;;;;;;;;;;;;;5038494;28;19925;-67
2021/03/28 10:51:34;;;;;;;;;;;;;;;;;;5040084;28;20020;-67
2021/03/28 10:54:00;;;;;;;;;;;;;;;;;;5037496;28;20016;-67
2021/03/28 10:56:27;;;;;;;;;;;;;;;;;;5036948;28;19976;-67
2021/03/28 10:58:53;;;;;;;;;;;;;;;;;;5036595;28;20123;-68
2021/03/28 11:01:20;;;;;;;;;;;;;;;;;;5035258;28;19925;-68
2021/03/28 11:03:46;;;;;;;;;;;;;;;;;;5041094;28;19929;-67
2021/03/28 11:06:13;;;;;;;;;;;;;;;;;;5035535;28;20437;-68
2021/03/28 11:08:39;;;;;;;;;;;;;;;;;;5035512;28;19925;-68
2021/03/28 11:11:06;;;;;;;;;;;;;;;;;;5036561;28;19968;-66
2021/03/28 11:13:32;;;;;;;;;;;;;;;;;;5040445;28;20411;-68
2021/03/28 11:15:59;;;;;;;;;;;;;;;;;;5038781;28;19931;-68
2021/03/28 11:18:25;;;;;;;;;;;;;;;;;;5047029;28;20027;-68
2021/03/28 11:20:52;;;;;;;;;;;;;;;;;;5043698;28;20005;-68
2021/03/28 11:23:23;;;;;;;;;;;;;;;;;;5040160;28;19963;-68
2021/03/28 11:25:50;;;;;;;;;;;;;;;;;;5042608;28;19944;-68
2021/03/28 11:28:16;;;;;;;;;;;;;;;;;;5042663;28;19933;-68
2021/03/28 11:30:44;;;;;;;;;;;;;;;;;;5042529;28;20352;-68
2021/03/28 11:33:10;;;;;;;;;;;;;;;;;;5040351;28;20273;-68
2021/03/28 11:35:37;;;;;;;;;;;;;;;;;;5041963;28;20498;-67
2021/03/28 11:38:03;;;;;;;;;;;;;;;;;;5043521;28;19978;-67
2021/03/28 11:40:31;;;;;;;;;;;;;;;;;;5037535;28;19940;-67
2021/03/28 11:42:58;;;;;;;;;;;;;;;;;;5038360;28;20011;-68
2021/03/28 11:45:24;;;;;;;;;;;;;;;;;;5038516;28;20078;-69
2021/03/28 11:47:51;;;;;;;;;;;;;;;;;;5044624;28;19983;-69
2021/03/28 11:50:18;;;;;;;;;;;;;;;;;;5045911;28;19924;-68
2021/03/28 11:52:44;;;;;;;;;;;;;;;;;;5045411;28;19958;-68
2021/03/28 11:55:11;;;;;;;;;;;;;;;;;;5043285;28;20296;-67
2021/03/28 11:57:37;;;;;;;;;;;;;;;;;;5040163;28;20443;-68
2021/03/28 12:00:05;;;;;;;;;;;;;;;;;;5037968;28;20011;-67
2021/03/28 12:02:32;;;;;;;;;;;;;;;;;;5036839;28;19971;-68
2021/03/28 12:04:58;;;;;;;;;;;;;;;;;;5038777;28;19979;-68
2021/03/28 12:07:26;;;;;;;;;;;;;;;;;;5035299;28;19929;-68
2021/03/28 12:09:52;;;;;;;;;;;;;;;;;;5036113;28;20300;-68
2021/03/28 12:12:19;;;;;;;;;;;;;;;;;;5040436;28;19925;-68
2021/03/28 12:14:45;;;;;;;;;;;;;;;;;;5037814;28;20195;-67
2021/03/28 12:17:11;;;;;;;;;;;;;;;;;;5039723;28;19933;-67
2021/03/28 12:19:38;;;;;;;;;;;;;;;;;;5040741;28;19944;-67
2021/03/28 12:22:04;;;;;;;;;;;;;;;;;;5039643;28;20019;-67
2021/03/28 12:24:31;;;;;;;;;;;;;;;;;;5040678;28;20045;-67
2021/03/28 12:26:57;;;;;;;;;;;;;;;;;;5038030;28;20410;-67
2021/03/28 12:29:24;;;;;;;;;;;;;;;;;;5034398;28;20391;-67
2021/03/28 12:31:51;;;;;;;;;;;;;;;;;;5037528;28;19948;-66
2021/03/28 12:34:17;;;;;;;;;;;;;;;;;;5038227;28;19925;-66
2021/03/28 12:36:46;;;;;;;;;;;;;;;;;;5036437;28;20039;-66
2021/03/28 12:39:12;;;;;;;;;;;;;;;;;;5037234;28;20409;-67
2021/03/28 12:41:39;;;;;;;;;;;;;;;;;;5043423;28;20016;-66
2021/03/28 12:44:08;;;;;;;;;;;;;;;;;;5038598;28;20411;-65
2021/03/28 12:46:34;;;;;;;;;;;;;;;;;;5042117;28;19956;-66
2021/03/28 12:49:01;;;;;;;;;;;;;;;;;;5037097;28;19975;-67
2021/03/28 12:51:27;;;;;;;;;;;;;;;;;;5036312;28;19933;-65
2021/03/28 12:53:54;;;;;;;;;;;;;;;;;;5036663;28;20012;-67
2021/03/28 12:56:20;;;;;;;;;;;;;;;;;;5039188;28;20123;-66
2021/03/28 12:58:53;;;;;;;;;;;;;;;;;;5037094;28;20000;-67
2021/03/28 13:01:19;;;;;;;;;;;;;;;;;;5039446;28;19925;-66
2021/03/28 13:03:46;;;;;;;;;;;;;;;;;;5033748;28;20019;-67
2021/03/28 13:06:12;;;;;;;;;;;;;;;;;;5039346;28;19947;-65
2021/03/28 13:08:39;;;;;;;;;;;;;;;;;;5033939;28;20405;-67
2021/03/28 13:11:06;;;;;;;;;;;;;;;;;;5034910;28;20023;-66
2021/03/28 13:13:32;;;;;;;;;;;;;;;;;;5032050;28;19929;-66
2021/03/28 13:16:00;;;;;;;;;;;;;;;;;;5032717;28;20305;-66
2021/03/28 13:18:26;;;;;;;;;;;;;;;;;;5033745;28;19925;-67
2021/03/28 13:20:53;;;;;;;;;;;;;;;;;;5032147;28;19986;-67
2021/03/28 13:23:19;;;;;;;;;;;;;;;;;;5037182;28;19939;-67
2021/03/28 13:25:46;;;;;;;;;;;;;;;;;;5031758;28;19979;-64
2021/03/28 13:28:15;;;;;;;;;;;;;;;;;;5032144;28;19929;-65
2021/03/28 13:30:41;;;;;;;;;;;;;;;;;;5037217;28;19933;-66
2021/03/28 13:33:08;;;;;;;;;;;;;;;;;;5038829;28;19929;-67
2021/03/28 13:35:34;;;;;;;;;;;;;;;;;;5040515;28;19982;-66
2021/03/28 13:38:01;;;;;;;;;;;;;;;;;;5044785;28;20020;-67
2021/03/28 13:40:27;;;;;;;;;;;;;;;;;;5039088;28;20047;-68
2021/03/28 13:42:55;;;;;;;;;;;;;;;;;;5034705;28;20015;-66
2021/03/28 13:45:30;;;;;;;;;;;;;;;;;;5030905;28;19925;-68
2021/03/28 13:47:57;;;;;;;;;;;;;;;;;;5033275;28;20317;-68
2021/03/28 13:50:23;;;;;;;;;;;;;;;;;;5030911;28;20950;-68
2021/03/28 13:52:49;;;;;;;;;;;;;;;;;;5032593;28;20409;-70
2021/03/28 13:55:16;;;;;;;;;;;;;;;;;;5037184;28;20025;-66
2021/03/28 13:57:42;;;;;;;;;;;;;;;;;;5035857;28;20007;-68
2021/03/28 14:00:09;;;;;;;;;;;;;;;;;;5031782;28;20285;-67
2021/03/28 14:02:35;;;;;;;;;;;;;;;;;;5037051;28;20761;-68
2021/03/28 14:05:03;;;;;;;;;;;;;;;;;;5038566;28;20028;-67
2021/03/28 14:07:30;;;;;;;;;;;;;;;;;;5042505;28;19933;-68
2021/03/28 14:09:56;;;;;;;;;;;;;;;;;;5037160;28;19925;-68
2021/03/28 14:12:23;;;;;;;;;;;;;;;;;;5037831;28;20327;-68
2021/03/28 14:14:50;;;;;;;;;;;;;;;;;;5034185;28;20397;-68
2021/03/28 14:17:16;;;;;;;;;;;;;;;;;;5036301;28;20027;-68
2021/03/28 14:19:43;;;;;;;;;;;;;;;;;;5036885;28;20035;-67
2021/03/28 14:22:09;;;;;;;;;;;;;;;;;;5035252;28;20754;-69
2021/03/28 14:24:36;;;;;;;;;;;;;;;;;;5031745;28;19937;-69
2021/03/28 14:27:02;;;;;;;;;;;;;;;;;;5032475;28;20019;-69
2021/03/28 14:29:29;;;;;;;;;;;;;;;;;;5040620;28;20016;-68
2021/03/28 14:31:55;;;;;;;;;;;;;;;;;;5034956;28;20436;-68
2021/03/28 14:34:22;;;;;;;;;;;;;;;;;;5038991;28;19931;-68
2021/03/28 14:36:50;;;;;;;;;;;;;;;;;;5033847;28;19929;-69
2021/03/28 14:39:17;;;;;;;;;;;;;;;;;;5036245;28;20400;-69
2021/03/28 14:41:43;;;;;;;;;;;;;;;;;;5037583;28;19933;-68
2021/03/28 14:44:10;;;;;;;;;;;;;;;;;;5037076;28;19948;-69
2021/03/28 14:46:36;;;;;;;;;;;;;;;;;;5035132;28;19925;-69
2021/03/28 14:49:03;;;;;;;;;;;;;;;;;;5038758;28;20286;-68
2021/03/28 14:51:29;;;;;;;;;;;;;;;;;;5042819;28;19931;-69
2021/03/28 14:53:56;;;;;;;;;;;;;;;;;;5036407;28;19925;-68
2021/03/28 14:56:22;;;;;;;;;;;;;;;;;;5036136;28;19931;-71
2021/03/28 14:58:49;;;;;;;;;;;;;;;;;;5038002;28;19971;-67
2021/03/28 15:01:17;;;;;;;;;;;;;;;;;;5038208;28;20431;-69
2021/03/28 15:03:43;;;;;;;;;;;;;;;;;;5043918;28;19933;-69
2021/03/28 15:06:10;;;;;;;;;;;;;;;;;;5040934;28;20441;-69
2021/03/28 15:08:36;;;;;;;;;;;;;;;;;;5050317;28;19970;-67
2021/03/28 15:11:03;;;;;;;;;;;;;;;;;;5040845;28;20396;-68
2021/03/28 15:13:30;;;;;;;;;;;;;;;;;;5043776;28;20345;-69
2021/03/28 15:15:56;;;;;;;;;;;;;;;;;;5042823;28;20418;-66
2021/03/28 15:18:23;;;;;;;;;;;;;;;;;;5042950;28;20352;-68
2021/03/28 15:20:49;;;;;;;;;;;;;;;;;;5044109;28;20277;-70
2021/03/28 15:23:16;;;;;;;;;;;;;;;;;;5033740;28;19928;-68
2021/03/28 15:25:42;;;;;;;;;;;;;;;;;;5036090;28;19935;-68
2021/03/28 15:28:09;;;;;;;;;;;;;;;;;;5041186;28;19929;-68
2021/03/28 15:30:36;;;;;;;;;;;;;;;;;;5042479;28;20434;-68
2021/03/28 15:33:03;;;;;;;;;;;;;;;;;;5039803;28;19929;-69
2021/03/28 15:35:29;;;;;;;;;;;;;;;;;;5041457;28;19932;-68
2021/03/28 15:37:56;;;;;;;;;;;;;;;;;;5042381;28;20012;-70
2021/03/28 15:40:22;;;;;;;;;;;;;;;;;;5035472;28;20015;-68
2021/03/28 15:42:49;;;;;;;;;;;;;;;;;;5036391;28;19983;-69
2021/03/28 15:45:16;;;;;;;;;;;;;;;;;;5041476;28;19964;-71
2021/03/28 15:47:43;;;;;;;;;;;;;;;;;;5039728;28;19935;-71
2021/03/28 15:50:09;;;;;;;;;;;;;;;;;;5036500;28;19986;-69
2021/03/28 15:52:36;;;;;;;;;;;;;;;;;;5032242;28;19929;-72
2021/03/28 15:55:02;;;;;;;;;;;;;;;;;;5041224;28;20715;-69
2021/03/28 15:57:29;;;;;;;;;;;;;;;;;;5039561;28;19967;-68
2021/03/28 15:59:55;;;;;;;;;;;;;;;;;;5036463;28;20396;-72
2021/03/28 16:02:22;;;;;;;;;;;;;;;;;;5033949;28;19948;-69
2021/03/28 16:04:49;;;;;;;;;;;;;;;;;;5038498;28;20294;-70
2021/03/28 16:07:15;;;;;;;;;;;;;;;;;;5037286;28;19933;-69
2021/03/28 16:09:42;;;;;;;;;;;;;;;;;;5040740;28;19952;-70
2021/03/28 16:12:08;;;;;;;;;;;;;;;;;;5037336;28;20604;-69
2021/03/28 16:14:35;;;;;;;;;;;;;;;;;;5041917;28;19979;-69
2021/03/28 16:17:02;;;;;;;;;;;;;;;;;;5037872;28;19925;-67
2021/03/28 16:19:29;;;;;;;;;;;;;;;;;;5036325;28;19925;-69
2021/03/28 16:21:55;;;;;;;;;;;;;;;;;;5041395;28;20366;-69
2021/03/28 16:24:22;;;;;;;;;;;;;;;;;;5036721;28;20398;-69
2021/03/28 16:26:48;;;;;;;;;;;;;;;;;;5039378;28;20443;-70
2021/03/28 16:29:15;;;;;;;;;;;;;;;;;;5046024;28;19951;-69
2021/03/28 16:31:41;;;;;;;;;;;;;;;;;;5048728;28;21378;-70
2021/03/28 16:34:08;;;;;;;;;;;;;;;;;;5045566;28;20355;-68
2021/03/28 16:36:34;;;;;;;;;;;;;;;;;;5045263;28;20130;-69
2021/03/28 16:39:01;;;;;;;;;;;;;;;;;;5043989;28;19935;-69
2021/03/28 16:41:27;;;;;;;;;;;;;;;;;;5042031;28;19931;-69